Time;durP1;ratioP1;P1;durP2;ratioP2;P2;SDS_P1;SDS_P2;PMS_P1;PMS_P2;Temp;Humidity;BMP_temperature;BMP_pressure;BME280_temperature;BME280_humidity;BME280_pressure;Samples;Min_cycle;Max_cycle;Signal;HPM_P1;HPM_P2
2022/04/19 00:00:35;;;;;;;17.05;11.38;;;;;;;9.76;100.00;99817.94;1680020;84;21633;-60
2022/04/19 00:03:02;;;;;;;19.30;11.75;;;;;;;9.60;100.00;99811.47;1680055;85;20990;-60
2022/04/19 00:05:32;;;;;;;21.10;12.68;;;;;;;9.55;100.00;99808.33;1680134;85;21084;-60
2022/04/19 00:08:01;;;;;;;19.37;12.63;;;;;;;9.57;100.00;99810.79;1680166;85;21024;-60
2022/04/19 00:10:29;;;;;;;18.92;12.40;;;;;;;9.74;100.00;99822.33;1680109;85;21010;-60
2022/04/19 00:13:01;;;;;;;20.90;12.95;;;;;;;9.57;100.00;99818.50;1679810;85;21033;-60
2022/04/19 00:15:32;;;;;;;18.12;12.33;;;;;;;9.73;100.00;99809.55;1679974;85;21005;-60
2022/04/19 00:18:03;;;;;;;22.07;12.90;;;;;;;9.43;100.00;99797.39;1680033;85;20962;-60
2022/04/19 00:20:32;;;;;;;18.65;12.03;;;;;;;9.40;100.00;99790.64;1680010;85;21064;-60
2022/04/19 00:23:03;;;;;;;19.42;12.47;;;;;;;9.39;100.00;99789.47;1680040;85;21537;-60
2022/04/19 00:25:30;;;;;;;19.30;12.95;;;;;;;9.31;100.00;99799.30;1680119;85;21037;-60
2022/04/19 00:27:58;;;;;;;19.32;12.28;;;;;;;9.24;100.00;99794.89;1679918;85;21043;-60
2022/04/19 00:30:26;;;;;;;20.10;12.53;;;;;;;9.36;100.00;99781.89;1680038;85;21030;-60
2022/04/19 00:32:55;;;;;;;22.42;12.15;;;;;;;9.39;100.00;99780.47;1679774;85;20994;-61
2022/04/19 00:35:23;;;;;;;18.55;12.15;;;;;;;9.27;100.00;99794.76;1680081;85;20990;-60
2022/04/19 00:37:51;;;;;;;19.07;11.83;;;;;;;9.26;100.00;99789.23;1679957;85;20993;-60
2022/04/19 00:40:18;;;;;;;17.77;11.28;;;;;;;9.12;100.00;99783.95;1679924;85;21037;-60
2022/04/19 00:42:46;;;;;;;14.85;10.23;;;;;;;9.34;100.00;99789.67;1680090;85;21069;-59
2022/04/19 00:45:14;;;;;;;16.02;11.05;;;;;;;8.98;100.00;99789.77;1680021;85;21041;-60
2022/04/19 00:47:41;;;;;;;17.12;11.03;;;;;;;9.20;100.00;99798.52;1679890;85;20998;-59
2022/04/19 00:50:09;;;;;;;17.00;11.18;;;;;;;9.11;100.00;99790.83;1679810;85;21568;-59
2022/04/19 00:52:40;;;;;;;17.20;11.28;;;;;;;9.20;100.00;99782.69;1679752;85;21545;-60
2022/04/19 00:55:10;;;;;;;17.42;11.25;;;;;;;9.16;100.00;99774.73;1686455;85;21001;-60
2022/04/19 00:57:42;;;;;;;18.85;12.00;;;;;;;9.07;100.00;99770.53;1693639;85;21112;-60
2022/04/19 01:00:12;;;;;;;16.93;11.48;;;;;;;8.88;100.00;99768.88;1693706;83;21047;-59
2022/04/19 01:02:43;;;;;;;17.23;11.20;;;;;;;8.95;100.00;99762.52;1693540;85;21056;-59
2022/04/19 01:05:14;;;;;;;19.60;12.15;;;;;;;9.10;100.00;99766.05;1693594;85;21067;-60
2022/04/19 01:07:46;;;;;;;20.60;11.63;;;;;;;8.88;100.00;99780.85;1693325;85;21072;-59
2022/04/19 01:10:15;;;;;;;17.12;11.78;;;;;;;8.97;100.00;99783.80;1693421;85;21567;-60
2022/04/19 01:15:29;;;;;;;18.10;12.13;;;;;;;8.88;100.00;99771.87;1693396;85;21001;-60
2022/04/19 01:18:06;;;;;;;17.42;11.80;;;;;;;8.97;100.00;99776.10;1693628;85;21029;-60
2022/04/19 01:20:34;;;;;;;18.20;11.05;;;;;;;9.17;100.00;99785.86;1693307;85;21028;-60
2022/04/19 01:23:03;;;;;;;17.70;11.25;;;;;;;9.30;100.00;99792.48;1693318;85;21457;-60
2022/04/19 01:25:32;;;;;;;20.72;11.63;;;;;;;9.35;100.00;99805.48;1693252;85;21036;-60
2022/04/19 01:28:01;;;;;;;18.92;11.68;;;;;;;9.31;100.00;99790.30;1693546;85;21024;-59
2022/04/19 01:30:29;;;;;;;19.40;10.95;;;;;;;9.27;100.00;99775.50;1693498;85;21024;-60
2022/04/19 01:32:57;;;;;;;17.35;10.50;;;;;;;9.25;100.00;99768.78;1693585;85;21040;-60
2022/04/19 01:35:25;;;;;;;14.85;9.15;;;;;;;9.30;100.00;99770.19;1693277;85;21004;-60
2022/04/19 01:37:54;;;;;;;18.57;10.63;;;;;;;9.25;100.00;99771.35;1693252;85;21088;-60
2022/04/19 01:40:22;;;;;;;17.17;10.23;;;;;;;9.35;100.00;99779.79;1692172;85;20997;-60
2022/04/19 01:42:57;;;;;;;17.20;9.75;;;;;;;9.28;100.00;99777.14;1693254;85;21028;-60
2022/04/19 01:45:28;;;;;;;17.25;9.23;;;;;;;9.45;100.00;99784.02;1693510;85;20977;-60
2022/04/19 01:48:00;;;;;;;15.78;9.50;;;;;;;9.27;100.00;99782.38;1693268;85;21032;-59
2022/04/19 01:50:29;;;;;;;15.20;9.30;;;;;;;9.26;100.00;99778.95;1693483;85;21009;-59
2022/04/19 01:53:02;;;;;;;15.30;9.80;;;;;;;9.45;100.00;99785.73;1693340;85;21549;-59
2022/04/19 01:55:30;;;;;;;16.27;9.90;;;;;;;9.57;100.00;99795.37;1686246;84;21013;-60
2022/04/19 01:58:00;;;;;;;15.63;9.73;;;;;;;9.73;100.00;99785.99;1679858;85;21084;-59
2022/04/19 02:00:30;;;;;;;16.20;9.58;;;;;;;9.73;100.00;99799.27;1678969;84;21064;-59
2022/04/19 02:02:58;;;;;;;15.48;8.98;;;;;;;9.74;100.00;99786.35;1679862;85;21037;-60
2022/04/19 02:05:26;;;;;;;15.80;8.75;;;;;;;9.55;100.00;99789.48;1679711;85;21493;-59
2022/04/19 02:07:53;;;;;;;15.23;8.70;;;;;;;9.52;100.00;99798.66;1679855;85;21056;-60
2022/04/19 02:10:21;;;;;;;14.70;8.33;;;;;;;9.56;100.00;99807.86;1679965;85;21490;-59
2022/04/19 02:12:52;;;;;;;14.45;8.33;;;;;;;9.44;100.00;99795.18;1679733;85;21024;-60
2022/04/19 02:15:37;;;;;;;14.15;7.72;;;;;;;9.33;100.00;99797.02;1679872;85;21065;-59
2022/04/19 02:18:11;;;;;;;14.33;8.18;;;;;;;9.38;100.00;99798.06;1679433;85;21068;-59
2022/04/19 02:20:40;;;;;;;13.28;7.75;;;;;;;9.30;100.00;99790.73;1679925;85;21033;-59
2022/04/19 02:23:08;;;;;;;13.18;8.13;;;;;;;9.64;100.00;99791.59;1679713;85;21077;-60
2022/04/19 02:25:36;;;;;;;13.50;7.83;;;;;;;9.58;100.00;99796.59;1679671;85;21045;-59
2022/04/19 02:28:07;;;;;;;12.73;7.70;;;;;;;9.45;100.00;99794.72;1679819;85;20989;-60
2022/04/19 02:30:35;;;;;;;11.90;7.72;;;;;;;9.43;100.00;99782.80;1679902;85;21059;-59
2022/04/19 02:33:05;;;;;;;14.07;8.58;;;;;;;9.31;100.00;99781.31;1679405;85;21060;-60
2022/04/19 02:35:37;;;;;;;12.73;7.67;;;;;;;9.36;100.00;99780.61;1680061;85;21517;-60
2022/04/19 02:38:06;;;;;;;14.13;8.50;;;;;;;9.34;100.00;99801.69;1679617;85;21027;-60
2022/04/19 02:40:39;;;;;;;12.65;8.18;;;;;;;9.36;100.00;99814.00;1679763;85;21061;-60
2022/04/19 02:43:07;;;;;;;14.13;8.63;;;;;;;9.61;100.00;99806.72;1679633;85;21545;-60
2022/04/19 02:45:34;;;;;;;13.80;8.75;;;;;;;9.35;100.00;99798.23;1679952;85;21061;-60
2022/04/19 02:48:06;;;;;;;12.90;8.35;;;;;;;9.23;100.00;99797.10;1679635;85;21006;-60
2022/04/19 02:50:43;;;;;;;11.23;7.40;;;;;;;9.37;100.00;99788.71;1679661;85;21092;-60
2022/04/19 02:53:13;;;;;;;13.85;8.50;;;;;;;9.26;100.00;99794.83;1679874;85;22211;-60
2022/04/19 02:55:41;;;;;;;13.75;7.97;;;;;;;9.45;100.00;99800.71;1686249;84;21012;-60
2022/04/19 02:58:09;;;;;;;13.45;7.42;;;;;;;9.52;100.00;99801.22;1693308;85;21036;-60
2022/04/19 03:00:39;;;;;;;12.88;7.55;;;;;;;9.61;100.00;99805.88;1693196;83;21624;-60
2022/04/19 03:03:10;;;;;;;13.38;7.22;;;;;;;9.46;100.00;99810.52;1693329;85;21168;-60
2022/04/19 03:05:40;;;;;;;11.50;6.72;;;;;;;9.40;100.00;99808.63;1693492;85;20992;-60
2022/04/19 03:08:09;;;;;;;14.15;7.33;;;;;;;9.49;100.00;99798.36;1693442;85;21537;-60
2022/04/19 03:10:37;;;;;;;11.75;7.10;;;;;;;9.51;100.00;99808.11;1693492;85;21020;-60
2022/04/19 03:13:06;;;;;;;12.63;7.35;;;;;;;9.74;100.00;99809.48;1693272;85;21556;-60
2022/04/19 03:15:37;;;;;;;11.48;7.22;;;;;;;9.71;100.00;99803.23;1693172;85;21079;-60
2022/04/19 03:18:06;;;;;;;14.85;7.95;;;;;;;9.76;100.00;99802.98;1693644;85;21144;-60
2022/04/19 03:20:36;;;;;;;13.08;7.97;;;;;;;9.74;100.00;99793.24;1693276;85;21080;-59
2022/04/19 03:28:41;;;;;;;15.50;8.33;;;;;;;9.74;100.00;99799.66;1693240;85;21097;-60
2022/04/19 03:31:08;;;;;;;14.83;8.40;;;;;;;9.67;100.00;99795.30;1693199;85;21076;-60
2022/04/19 03:33:37;;;;;;;15.93;8.95;;;;;;;9.70;100.00;99802.02;1693192;85;21095;-60
2022/04/19 03:36:05;;;;;;;14.45;8.68;;;;;;;9.70;100.00;99800.27;1693289;85;21068;-60
2022/04/19 03:38:34;;;;;;;13.53;8.53;;;;;;;9.54;100.00;99800.69;1693523;85;21056;-60
2022/04/19 03:41:03;;;;;;;17.20;9.60;;;;;;;9.61;100.00;99812.30;1693236;85;21040;-60
2022/04/19 03:43:32;;;;;;;14.45;8.18;;;;;;;9.52;100.00;99806.36;1693392;85;20997;-60
2022/04/19 03:46:00;;;;;;;15.00;9.15;;;;;;;9.68;100.00;99808.52;1693486;85;21056;-60
2022/04/19 03:48:29;;;;;;;16.20;9.35;;;;;;;9.96;100.00;99813.05;1693363;85;21123;-60
2022/04/19 03:50:58;;;;;;;14.95;9.20;;;;;;;10.04;100.00;99811.37;1693243;85;21052;-60
2022/04/19 03:53:25;;;;;;;13.50;8.78;;;;;;;9.90;100.00;99815.12;1693392;85;21021;-60
2022/04/19 03:55:54;;;;;;;15.48;8.28;;;;;;;9.89;100.00;99823.73;1693011;85;21021;-60
2022/04/19 03:58:21;;;;;;;13.75;8.05;;;;;;;9.83;100.00;99818.02;1693291;85;21025;-61
2022/04/19 04:00:50;;;;;;;12.93;7.58;;;;;;;9.70;100.00;99822.11;1693293;83;21112;-60
2022/04/19 04:03:17;;;;;;;11.43;7.47;;;;;;;9.87;100.00;99816.09;1693389;85;21465;-60
2022/04/19 04:05:45;;;;;;;12.03;6.87;;;;;;;9.73;100.00;99818.55;1693201;85;21044;-60
2022/04/19 04:08:14;;;;;;;11.20;6.72;;;;;;;9.83;100.00;99831.30;1693380;85;21032;-60
2022/04/19 04:10:44;;;;;;;9.25;6.15;;;;;;;9.80;100.00;99828.44;1692824;85;21057;-60
2022/04/19 04:13:12;;;;;;;12.20;6.80;;;;;;;9.69;100.00;99824.75;1693231;85;21540;-60
2022/04/19 04:15:41;;;;;;;9.93;5.92;;;;;;;9.87;100.00;99831.52;1693439;85;21024;-60
2022/04/19 04:18:09;;;;;;;9.78;6.37;;;;;;;10.03;100.00;99834.94;1693323;85;21003;-60
2022/04/19 04:20:38;;;;;;;13.68;6.95;;;;;;;9.89;100.00;99844.30;1693365;85;21546;-60
2022/04/19 04:23:05;;;;;;;10.65;6.20;;;;;;;9.91;100.00;99844.58;1693306;85;21009;-60
2022/04/19 04:25:32;;;;;;;10.32;6.75;;;;;;;10.01;100.00;99842.38;1693423;85;21485;-60
2022/04/19 04:28:01;;;;;;;11.22;6.42;;;;;;;9.72;100.00;99855.45;1693441;85;21036;-60
2022/04/19 04:30:30;;;;;;;12.18;6.65;;;;;;;9.67;100.00;99856.98;1692167;85;21501;-60
2022/04/19 04:33:01;;;;;;;10.60;6.62;;;;;;;9.73;100.00;99856.67;1693434;85;21044;-60
2022/04/19 04:35:28;;;;;;;13.45;7.47;;;;;;;9.65;100.00;99864.37;1693025;85;20997;-60
2022/04/19 04:37:56;;;;;;;11.70;7.10;;;;;;;9.67;100.00;99849.27;1693210;85;21005;-60
2022/04/19 04:40:25;;;;;;;13.58;7.08;;;;;;;9.73;100.00;99841.25;1693542;85;21040;-60
2022/04/19 04:42:55;;;;;;;10.93;6.55;;;;;;;9.52;100.00;99843.16;1692368;85;21056;-60
2022/04/19 04:45:22;;;;;;;13.58;7.37;;;;;;;9.58;100.00;99842.02;1693509;85;21052;-60
2022/04/19 04:50:35;;;;;;;15.45;7.12;;;;;;;9.71;100.00;99853.34;1667782;85;21072;-60
2022/04/19 04:53:05;;;;;;;15.18;8.05;;;;;;;9.75;100.00;99856.57;1693291;85;20997;-61
2022/04/19 04:55:32;;;;;;;13.40;7.15;;;;;;;9.69;100.00;99861.59;1704392;83;21013;-60
2022/04/19 04:58:01;;;;;;;17.10;7.95;;;;;;;9.80;100.00;99854.61;1703129;84;21011;-60
2022/04/19 05:00:29;;;;;;;13.48;8.13;;;;;;;9.94;100.00;99862.44;1708256;83;21120;-61
2022/04/19 05:02:58;;;;;;;15.15;8.50;;;;;;;9.99;100.00;99868.62;1708441;83;21020;-61
2022/04/19 05:05:27;;;;;;;15.00;7.78;;;;;;;9.99;100.00;99870.73;1707102;82;21090;-61
2022/04/19 05:07:57;;;;;;;12.73;8.23;;;;;;;10.05;100.00;99859.30;1705640;84;21072;-60
2022/04/19 05:10:27;;;;;;;15.20;8.25;;;;;;;10.33;100.00;99868.99;1704677;83;21021;-60
2022/04/19 05:12:56;;;;;;;15.25;7.65;;;;;;;10.17;100.00;99883.09;1706941;83;21037;-60
2022/04/19 05:15:25;;;;;;;15.30;8.48;;;;;;;10.02;100.00;99884.73;1708211;83;21067;-60
2022/04/19 05:17:54;;;;;;;15.75;7.90;;;;;;;10.38;100.00;99890.61;1704606;84;20985;-61
2022/04/19 05:20:23;;;;;;;25.80;12.88;;;;;;;10.55;100.00;99890.55;1708283;83;20996;-61
2022/04/19 05:22:52;;;;;;;27.55;13.83;;;;;;;10.46;100.00;99894.89;1709937;83;21016;-61
2022/04/19 05:25:19;;;;;;;32.33;16.20;;;;;;;10.26;100.00;99902.37;1707490;83;21019;-60
2022/04/19 05:27:47;;;;;;;18.95;10.93;;;;;;;10.29;100.00;99902.66;1692223;83;21132;-60
2022/04/19 05:30:14;;;;;;;20.05;10.72;;;;;;;10.02;100.00;99882.62;1708008;83;20984;-60
2022/04/19 05:32:43;;;;;;;19.98;9.65;;;;;;;10.01;100.00;99876.62;1706483;83;21533;-60
2022/04/19 05:35:11;;;;;;;16.23;9.30;;;;;;;10.21;100.00;99870.91;1703999;84;21013;-60
2022/04/19 05:37:39;;;;;;;15.93;8.88;;;;;;;10.07;100.00;99861.33;1707410;83;21041;-60
2022/04/19 05:40:08;;;;;;;18.35;10.50;;;;;;;10.28;100.00;99851.67;1707275;83;21028;-60
2022/04/19 05:42:37;;;;;;;23.52;12.75;;;;;;;10.48;100.00;99856.22;1708902;83;21012;-59
2022/04/19 05:45:06;;;;;;;28.50;14.68;;;;;;;10.41;100.00;99860.41;1682065;83;21032;-60
2022/04/19 05:47:35;;;;;;;30.75;15.20;;;;;;;10.54;100.00;99870.04;1690891;83;21012;-61
2022/04/19 05:50:04;;;;;;;28.67;14.25;;;;;;;10.74;100.00;99872.35;1707920;83;21028;-59
2022/04/19 05:52:32;;;;;;;41.73;21.25;;;;;;;10.74;100.00;99863.80;1707996;83;21040;-60
2022/04/19 05:55:04;;;;;;;51.53;23.77;;;;;;;10.82;100.00;99861.64;1646372;85;21111;-60
2022/04/19 05:57:31;;;;;;;51.20;25.30;;;;;;;10.95;100.00;99861.80;1654856;86;21028;-60
2022/04/19 05:59:59;;;;;;;46.98;24.57;;;;;;;11.02;100.00;99865.21;1655838;85;21552;-59
2022/04/19 06:05:15;;;;;;;51.70;25.90;;;;;;;11.01;100.00;99872.58;1653008;87;21461;-59
2022/04/19 06:07:46;;;;;;;47.78;25.15;;;;;;;10.92;100.00;99889.82;1656144;86;21560;-60
2022/04/19 06:10:17;;;;;;;49.93;25.52;;;;;;;11.02;100.00;99885.81;1656242;86;21051;-59
2022/04/19 06:12:48;;;;;;;49.48;27.07;;;;;;;10.96;100.00;99879.72;1633795;87;21014;-60
2022/04/19 06:15:16;;;;;;;74.32;35.52;;;;;;;11.11;100.00;99881.92;1632132;87;21027;-59
2022/04/19 06:17:43;;;;;;;80.75;39.13;;;;;;;11.07;100.00;99888.16;1633285;87;21046;-60
2022/04/19 06:20:15;;;;;;;98.75;46.37;;;;;;;10.99;100.00;99880.03;1630313;87;21041;-59
2022/04/19 06:22:45;;;;;;;115.28;51.37;;;;;;;11.09;100.00;99868.73;1630068;87;21064;-60
2022/04/19 06:25:14;;;;;;;119.33;53.30;;;;;;;11.20;100.00;99882.67;1631461;87;21068;-60
2022/04/19 06:27:42;;;;;;;112.90;52.83;;;;;;;11.32;100.00;99885.02;1631766;87;21055;-60
2022/04/19 06:30:12;;;;;;;128.42;58.58;;;;;;;11.31;100.00;99887.20;1629727;87;21491;-60
2022/04/19 06:32:42;;;;;;;134.22;60.52;;;;;;;11.19;100.00;99879.73;1608525;87;21507;-59
2022/04/19 06:35:10;;;;;;;140.80;63.10;;;;;;;11.16;100.00;99873.92;1630408;87;21023;-60
2022/04/19 06:37:38;;;;;;;122.72;56.63;;;;;;;11.19;100.00;99895.20;1651612;87;20992;-60
2022/04/19 06:40:09;;;;;;;98.37;47.33;;;;;;;11.28;100.00;99903.32;1655956;87;21067;-59
2022/04/19 06:42:37;;;;;;;86.85;42.25;;;;;;;11.22;100.00;99898.05;1617364;88;21059;-59
2022/04/19 06:45:11;;;;;;;70.28;36.75;;;;;;;11.30;100.00;99892.00;1565217;88;21043;-59
2022/04/19 06:47:40;;;;;;;61.55;30.65;;;;;;;11.24;100.00;99894.92;1631745;87;21478;-60
2022/04/19 06:50:10;;;;;;;58.02;29.80;;;;;;;11.36;100.00;99892.94;1629946;87;21062;-60
2022/04/19 06:52:38;;;;;;;58.55;30.10;;;;;;;11.53;100.00;99893.71;1607568;87;21515;-59
2022/04/19 06:55:08;;;;;;;60.90;31.48;;;;;;;11.44;100.00;99897.66;1631079;87;21062;-60
2022/04/19 06:57:39;;;;;;;69.67;33.38;;;;;;;11.35;100.00;99895.13;1638026;87;21071;-60
2022/04/19 07:00:09;;;;;;;97.82;46.23;;;;;;;11.25;100.00;99886.73;1669006;84;21072;-60
2022/04/19 07:02:36;;;;;;;78.05;37.80;;;;;;;11.31;100.00;99880.77;1692349;84;21080;-59
2022/04/19 07:05:22;;;;;;;61.48;30.55;;;;;;;11.29;100.00;99890.33;1715940;84;21506;-59
2022/04/19 07:07:51;;;;;;;62.43;29.12;;;;;;;11.26;100.00;99887.94;1716079;84;21037;-59
2022/04/19 07:10:20;;;;;;;53.63;26.82;;;;;;;11.34;100.00;99889.63;1716324;84;21073;-59
2022/04/19 07:12:49;;;;;;;46.20;21.05;;;;;;;11.38;100.00;99885.13;1690152;84;21080;-59
2022/04/19 07:15:18;;;;;;;47.67;21.80;;;;;;;11.18;100.00;99867.76;1715172;84;21474;-59
2022/04/19 07:17:48;;;;;;;37.08;16.65;;;;;;;11.16;100.00;99873.92;1710698;84;21534;-60
2022/04/19 07:28:40;;;;;;;22.45;10.80;;;;;;;10.74;100.00;99840.64;1610103;88;21067;-60
2022/04/19 07:31:10;;;;;;;19.52;10.53;;;;;;;10.60;100.00;99831.09;1616366;88;21044;-60
2022/04/19 07:33:38;;;;;;;18.07;10.28;;;;;;;10.76;100.00;99818.21;1651083;84;21048;-60
2022/04/19 07:36:07;;;;;;;18.75;10.65;;;;;;;10.76;100.00;99783.46;1715049;84;21037;-60
2022/04/19 07:38:35;;;;;;;22.20;9.75;;;;;;;10.74;100.00;99765.98;1714977;84;21033;-61
2022/04/19 07:41:06;;;;;;;16.35;7.85;;;;;;;10.69;100.00;99747.41;1710371;84;21041;-61
2022/04/19 07:43:35;;;;;;;14.20;7.53;;;;;;;10.50;100.00;99770.33;1715280;84;20997;-61
2022/04/19 07:46:05;;;;;;;13.32;7.85;;;;;;;10.66;100.00;99772.02;1713457;84;21021;-61
2022/04/19 07:48:32;;;;;;;13.50;8.00;;;;;;;10.93;100.00;99776.05;1712032;84;21631;-61
2022/04/19 07:51:01;;;;;;;14.65;7.75;;;;;;;10.95;100.00;99786.66;1708861;84;21052;-61
2022/04/19 07:53:30;;;;;;;14.58;7.55;;;;;;;10.91;100.00;99790.33;1681286;84;21091;-61
2022/04/19 07:55:57;;;;;;;14.60;9.08;;;;;;;11.30;100.00;99800.53;1714918;83;21056;-62
2022/04/19 07:58:27;;;;;;;15.13;9.38;;;;;;;11.39;100.00;99805.59;1711943;84;21986;-61
2022/04/19 08:00:55;;;;;;;14.38;8.85;;;;;;;11.38;100.00;99802.67;1705325;82;21076;-60
2022/04/19 08:03:23;;;;;;;15.78;9.73;;;;;;;11.66;100.00;99805.73;1708265;84;21024;-61
2022/04/19 08:05:51;;;;;;;17.55;10.50;;;;;;;11.58;100.00;99822.11;1702430;84;21561;-61
2022/04/19 08:08:21;;;;;;;15.03;9.13;;;;;;;11.88;100.00;99827.63;1710425;84;21024;-61
2022/04/19 08:10:50;;;;;;;16.02;8.30;;;;;;;12.13;100.00;99833.46;1715481;82;21076;-60
2022/04/19 08:13:19;;;;;;;14.00;7.72;;;;;;;12.21;100.00;99838.51;1725577;83;21055;-60
2022/04/19 08:15:48;;;;;;;12.28;7.50;;;;;;;12.25;100.00;99846.90;1718283;83;21017;-61
2022/04/19 08:18:16;;;;;;;10.10;7.03;;;;;;;12.48;100.00;99860.12;1705740;84;21048;-61
2022/04/19 08:20:46;;;;;;;14.35;7.15;;;;;;;12.86;100.00;99872.38;1715539;84;21663;-61
2022/04/19 08:23:15;;;;;;;13.62;7.42;;;;;;;12.93;100.00;99883.97;1705953;84;21044;-61
2022/04/19 08:25:45;;;;;;;11.28;7.12;;;;;;;12.92;100.00;99889.60;1710485;83;21017;-60
2022/04/19 08:28:13;;;;;;;13.35;7.90;;;;;;;12.71;100.00;99886.64;1709221;84;21044;-61
2022/04/19 08:30:41;;;;;;;13.85;8.30;;;;;;;12.80;100.00;99892.97;1708945;84;21041;-61
2022/04/19 08:33:09;;;;;;;14.43;8.33;;;;;;;13.03;100.00;99901.36;1712313;84;21559;-61
2022/04/19 08:35:37;;;;;;;12.73;7.97;;;;;;;13.12;100.00;99906.86;1715439;84;21040;-60
2022/04/19 08:38:04;;;;;;;14.15;8.35;;;;;;;13.28;100.00;99906.70;1710369;84;21536;-60
2022/04/19 08:40:34;;;;;;;15.70;7.58;;;;;;;13.31;100.00;99913.83;1711542;84;21020;-60
2022/04/19 08:43:03;;;;;;;12.75;7.55;;;;;;;13.57;100.00;99918.59;1715653;84;21080;-59
2022/04/19 08:45:32;;;;;;;11.18;7.42;;;;;;;13.63;100.00;99916.07;1714727;84;21013;-59
2022/04/19 08:48:03;;;;;;;11.53;7.15;;;;;;;13.59;100.00;99916.73;1712232;84;21122;-59
2022/04/19 08:50:33;;;;;;;12.18;7.12;;;;;;;13.77;100.00;99917.27;1715728;84;21072;-59
2022/04/19 08:58:30;;;;;;;11.60;7.45;;;;;;;13.34;100.00;99945.96;1614794;88;21043;-60
2022/04/19 09:00:59;;;;;;;11.93;7.50;;;;;;;13.04;100.00;99948.72;1680627;82;21156;-61
2022/04/19 09:03:27;;;;;;;11.12;6.97;;;;;;;12.92;100.00;99956.77;1706997;83;21048;-59
2022/04/19 09:05:55;;;;;;;12.33;6.90;;;;;;;12.99;100.00;99958.50;1707875;83;21533;-59
2022/04/19 09:08:22;;;;;;;12.98;7.05;;;;;;;13.23;100.00;99962.58;1703313;83;21084;-59
2022/04/19 09:10:50;;;;;;;11.95;7.65;;;;;;;13.41;100.00;99964.48;1711297;83;21249;-59
2022/04/19 09:13:22;;;;;;;13.88;7.75;;;;;;;13.49;100.00;99958.81;1710041;83;20999;-61
2022/04/19 09:15:54;;;;;;;11.18;6.95;;;;;;;13.51;100.00;99958.25;1708806;83;21026;-59
2022/04/19 09:18:30;;;;;;;9.90;6.37;;;;;;;13.51;100.00;99961.66;1707867;83;21497;-59
2022/04/19 09:21:00;;;;;;;11.70;6.30;;;;;;;13.27;100.00;99967.91;1709197;83;21058;-60
2022/04/19 09:23:29;;;;;;;11.05;6.80;;;;;;;13.23;100.00;99965.16;1711557;83;21055;-60
2022/04/19 09:26:02;;;;;;;9.80;6.47;;;;;;;13.39;100.00;99957.29;1711012;83;21468;-59
2022/04/19 09:28:31;;;;;;;10.25;6.97;;;;;;;13.43;100.00;99975.08;1704047;83;21031;-60
2022/04/19 09:31:02;;;;;;;9.85;6.60;;;;;;;13.38;100.00;99979.73;1710948;83;21520;-60
2022/04/19 09:33:31;;;;;;;10.08;6.55;;;;;;;13.21;100.00;99973.48;1656829;85;21014;-60
2022/04/19 09:36:04;;;;;;;9.98;6.92;;;;;;;13.14;100.00;99973.05;1671997;85;21067;-60
2022/04/19 09:38:47;;;;;;;10.90;7.15;;;;;;;13.10;100.00;99974.16;1670592;85;21048;-60
2022/04/19 09:41:19;;;;;;;10.67;7.37;;;;;;;13.09;100.00;99975.08;1647574;85;21000;-60
2022/04/19 09:43:51;;;;;;;12.90;7.78;;;;;;;12.92;100.00;99981.78;1666729;84;21128;-60
2022/04/19 09:46:20;;;;;;;12.47;7.50;;;;;;;12.97;100.00;99974.09;1662640;85;21037;-61
2022/04/19 09:48:48;;;;;;;13.35;8.55;;;;;;;12.87;100.00;99970.42;1674266;85;21053;-60
2022/04/19 09:51:16;;;;;;;11.70;8.13;;;;;;;12.67;100.00;99967.77;1670389;84;21024;-60
2022/04/19 09:53:48;;;;;;;12.70;8.63;;;;;;;12.53;100.00;99969.94;1660706;85;21057;-60
2022/04/19 09:56:21;;;;;;;13.38;8.75;;;;;;;12.40;100.00;99959.97;1657619;86;21143;-59
2022/04/19 09:58:51;;;;;;;13.40;9.25;;;;;;;12.22;100.00;99954.98;1666430;85;21033;-59
2022/04/19 10:09:36;;;;;;;15.23;9.13;;;;;;;12.54;100.00;99949.63;1674474;85;21027;-60
2022/04/19 10:12:06;;;;;;;;;;;;;;;12.18;100.00;99932.86;1689072;85;21043;-60
2022/04/19 10:14:35;;;;;;;17.12;9.78;;;;;;;12.25;100.00;99926.04;1686603;85;20123;-60
2022/04/19 10:17:05;;;;;;;15.95;8.93;;;;;;;12.50;100.00;99922.81;1686598;85;21086;-60
2022/04/19 10:19:33;;;;;;;12.95;8.60;;;;;;;12.36;100.00;99928.34;1686836;84;21543;-61
2022/04/19 10:22:07;;;;;;;12.85;8.73;;;;;;;12.55;100.00;99956.47;1686515;85;21119;-60
2022/04/19 10:24:47;;;;;;;;;;;;;;;12.65;100.00;99975.25;1666884;85;21052;-61
2022/04/19 10:27:15;;;;;;;15.93;10.00;;;;;;;12.68;100.00;99966.05;1656194;86;20196;-60
2022/04/19 10:29:46;;;;;;;12.60;8.18;;;;;;;12.68;100.00;99958.30;1653968;86;21569;-60
2022/04/19 10:32:14;;;;;;;11.05;8.53;;;;;;;12.74;100.00;99970.83;1624317;88;21545;-60
2022/04/19 10:34:44;;;;;;;13.00;9.50;;;;;;;12.71;100.00;99982.19;1661311;86;21148;-59
2022/04/19 10:37:23;;;;;;;12.60;9.13;;;;;;;12.76;100.00;99990.94;1649065;87;21135;-60
2022/04/19 10:39:59;;;;;;;13.48;10.13;;;;;;;12.77;100.00;100005.05;1633548;86;21426;-59
2022/04/19 10:42:38;;;;;;;13.83;10.10;;;;;;;12.59;100.00;100003.13;1641854;87;21058;-60
2022/04/19 10:45:24;;;;;;;13.78;10.78;;;;;;;12.53;100.00;99995.75;1642703;87;21043;-60
2022/04/19 10:48:00;;;;;;;13.75;11.00;;;;;;;12.54;100.00;100000.45;1642612;87;21008;-60
2022/04/19 10:50:40;;;;;;;23.40;15.95;;;;;;;12.38;100.00;100014.73;1642339;87;21132;-60
2022/04/19 10:53:10;;;;;;;27.75;19.73;;;;;;;12.40;100.00;100014.17;1642571;87;21094;-60
2022/04/19 10:56:01;;;;;;;33.73;22.67;;;;;;;12.39;100.00;100021.56;1642674;87;21102;-60
2022/04/19 10:58:43;;;;;;;44.53;29.12;;;;;;;12.41;100.00;100007.64;1623749;87;21080;-60
2022/04/19 11:01:31;;;;;;;54.77;33.48;;;;;;;12.28;100.00;100013.14;1616245;87;21048;-60
2022/04/19 11:03:58;;;;;;;87.57;47.53;;;;;;;12.29;100.00;100025.14;1616365;89;21020;-59
2022/04/19 11:06:40;;;;;;;101.30;52.98;;;;;;;12.28;100.00;100032.97;1616120;89;21111;-60
2022/04/19 11:09:15;;;;;;;116.90;60.58;;;;;;;12.20;100.00;100024.38;1616632;89;21517;-60
2022/04/19 11:11:54;;;;;;;114.12;57.48;;;;;;;12.11;100.00;100010.74;1616128;89;21060;-60
2022/04/19 11:14:41;;;;;;;108.72;54.20;;;;;;;12.27;100.00;100019.24;1616374;89;21072;-60
2022/04/19 11:17:27;;;;;;;91.50;47.20;;;;;;;12.20;100.00;100026.49;1616062;89;21123;-60
2022/04/19 11:20:07;;;;;;;85.75;46.30;;;;;;;12.16;100.00;100032.75;1595806;89;22701;-60
2022/04/19 11:22:48;;;;;;;63.42;37.13;;;;;;;12.25;100.00;100011.20;1616057;89;21072;-60
2022/04/19 11:25:38;;;;;;;60.95;35.20;;;;;;;12.32;100.00;100012.52;1616182;88;21052;-60
2022/04/19 11:28:14;;;;;;;62.98;35.50;;;;;;;12.52;100.00;100003.58;1616431;89;21067;-59
2022/04/19 11:30:52;;;;;;;68.00;36.88;;;;;;;12.59;100.00;100016.03;1616331;89;22322;-59
2022/04/19 11:33:25;;;;;;;68.57;37.55;;;;;;;12.39;100.00;100040.45;1614943;89;21577;-59
2022/04/19 11:36:18;;;;;;;72.55;41.48;;;;;;;12.61;100.00;100029.69;1617076;89;21072;-59
2022/04/19 11:38:50;;;;;;;60.08;33.60;;;;;;;12.92;100.00;100047.19;1617285;89;21044;-59
2022/04/19 11:46:45;;;;;;;23.25;16.30;;;;;;;12.39;100.00;100031.89;1585568;89;21052;-60
2022/04/19 11:49:25;;;;;;;25.65;17.17;;;;;;;12.39;100.00;100026.73;1617148;89;21032;-60
2022/04/19 11:51:58;;;;;;;21.27;14.45;;;;;;;12.74;100.00;100027.18;1617328;89;21068;-61
2022/04/19 11:54:28;;;;;;;17.02;12.03;;;;;;;12.93;100.00;100025.58;1617418;89;21052;-61
2022/04/19 11:57:08;;;;;;;13.25;9.13;;;;;;;12.81;100.00;100027.63;1617162;89;21544;-61
2022/04/19 11:59:41;;;;;;;10.30;8.30;;;;;;;12.76;100.00;100027.09;1604828;89;21116;-61
2022/04/19 12:02:16;;;;;;;10.50;8.53;;;;;;;12.77;100.00;100032.17;1611761;88;21128;-61
2022/04/19 12:04:56;;;;;;;10.93;8.30;;;;;;;12.80;100.00;100035.02;1621662;88;21501;-60
2022/04/19 12:07:25;;;;;;;11.40;9.28;;;;;;;12.58;100.00;100015.65;1620712;88;21472;-60
2022/04/19 12:09:57;;;;;;;10.38;8.28;;;;;;;12.52;100.00;100013.44;1629874;88;21601;-60
2022/04/19 12:12:27;;;;;;;11.40;8.50;;;;;;;12.20;100.00;100009.72;1630012;88;21092;-60